• Join FlightAware (Why Join?)
  • Login
  • US Flag 
02:06AM EDT


 

Airport Tracker/Info


-or-


 

Live Flight TrackerFlight Track Log ✈ N231PF ✈ 22-Jun-2014 ✈ KMPV - KHPN

Flight Track Log - Related Links

Times and Time Zones

All times are in EDT time to prevent confusion due to time zone crossing. See the N231PF flight status page for this flight to view local times or setup timezone preferences in your user account.

Time Position Orientation Groundspeed Altitude Reporting Facility
EDT Latitude Longitude Course Direction KTS MPH feet Rate Location/Type
04:36PM 43.9775 -72.6097 188° South 127 146 7,000  Level Boston Center
04:37PM 43.9397 -72.6169 188° South 129 148 7,700 540 Climbing Boston Center
04:39PM 43.9097 -72.6228 188° South 129 148 8,200 540 Climbing Boston Center
04:40PM 43.8650 -72.6325 189° South 132 152 8,900 660 Climbing Boston Center
04:41PM 43.8269 -72.6408 189° South 133 153 9,600 660 Climbing Boston Center
04:42PM 43.7881 -72.6483 188° South 138 159 10,300 660 Climbing Boston Center
04:43PM 43.7458 -72.6569 188° South 141 162 11,000 600 Climbing Boston Center
04:44PM 43.7067 -72.6644 188° South 144 166 11,600 480 Climbing Boston Center
04:45PM 43.6686 -72.6733 190° South 150 173 12,000 120 Climbing Boston Center
04:46PM 43.6194 -72.6822 187° South 174 200 11,900 -60 Descending Boston Center
04:47PM 43.5553 -72.6969 189° South 194 223 11,900  Level Boston Center
04:48PM 43.5006 -72.7081 188° South 194 223 11,900  Level Boston Center
04:49PM 43.4458 -72.7183 188° South 196 226 11,900  Level Boston Center
04:50PM 43.3900 -72.7303 189° South 199 229 11,900  Level Boston Center
04:51PM 43.3353 -72.7411 188° South 199 229 11,900  Level Boston Center
04:52PM 43.2811 -72.7531 189° South 199 229 11,900  Level Boston Center
04:53PM 43.2147 -72.7661 188° South 199 229 11,900  Level Boston Center
04:54PM 43.1611 -72.7758 188° South 198 228 11,900  Level Boston Center
04:55PM 43.1075 -72.7878 189° South 198 228 11,900  Level Boston Center
04:56PM 43.0536 -72.7981 188° South 195 224 11,900  Level Boston Center
04:57PM 42.9992 -72.8089 188° South 196 226 11,900  Level Boston Center
04:58PM 42.9461 -72.8203 189° South 196 226 11,900  Level Boston Center
04:59PM 42.8914 -72.8294 187° South 197 227 11,900  Level Boston Center
05:00PM 42.8269 -72.8422 188° South 197 227 11,900  Level Boston Center
05:01PM 42.7733 -72.8536 189° South 197 227 11,900  Level Boston Center
05:02PM 42.7189 -72.8650 189° South 197 227 11,900  Level Boston Center
05:03PM 42.6656 -72.8756 188° South 196 226 11,900  Level Boston Center
05:04PM 42.6122 -72.8858 188° South 196 226 11,900  Level Boston Center
05:05PM 42.5522 -72.8981 189° South 192 221 11,900  Level Boston Center
05:06PM 42.5064 -72.9419 215° Southwest 187 215 11,900  Level Boston Center
05:07PM 42.4614 -72.9819 213° Southwest 188 216 11,900  Level Boston Center
05:08PM 42.4142 -73.0250 214° Southwest 190 219 11,900  Level Boston Center
05:09PM 42.3697 -73.0644 213° Southwest 190 219 11,900  Level Boston Center
05:10PM 42.3231 -73.1075 214° Southwest 190 219 11,900  Level Boston Center
05:12PM 42.2797 -73.1467 214° Southwest 189 217 11,900  Level Boston Center
05:13PM 42.2353 -73.1867 214° Southwest 190 219 11,900  Level Boston Center
05:14PM 42.1881 -73.2281 213° Southwest 190 219 11,900  Level Boston Center
05:15PM 42.1442 -73.2686 214° Southwest 190 219 11,900  Level Boston Center
05:16PM 42.0969 -73.3097 213° Southwest 190 219 11,900  Level Boston Center
05:17PM 42.0539 -73.3497 215° Southwest 190 219 11,900  Level Boston Center
05:18PM 42.0056 -73.3889 211° Southwest 189 217 11,900  Level Boston Center
05:19PM 41.9519 -73.4097 196° South 195 224 11,900 -60 Level Boston Center
05:20PM 41.9000 -73.4328 198° South 196 226 11,800 -360 Descending Boston Center
05:21PM 41.8408 -73.4572 197° South 204 235 11,200 -660 Descending Boston Center
05:22PM 41.7844 -73.4831 199° South 212 244 10,500 -900 Descending Boston Center
05:23PM 41.7236 -73.5122 200° South 212 244 9,400 -900 Descending Boston Center
05:24PM 41.6669 -73.5333 196° South 212 244 8,700 -780 Descending Boston Center
05:25PM 41.6078 -73.5575 197° South 210 242 7,800 -960 Descending Boston Center
05:26PM 41.5525 -73.5800 197° South 208 239 6,800 -840 Descending Boston Center
05:27PM 41.4997 -73.6058 200° South 205 236 6,200 -780 Descending Boston Center
05:28PM 41.4422 -73.6272 196° South 204 235 5,200 -1,080 Descending Boston Center
05:29PM 41.3881 -73.6386 189° South 201 231 4,000 -1,140 Descending Boston Center
05:30PM 41.3325 -73.6544 192° South 194 223 2,900 -840 Descending Boston Center
05:31PM 41.2908 -73.6856 209° Southwest 186 214 2,300 -480 Descending Boston Center
05:32PM 41.2706 -73.7350 241° Southwest 176 203 2,000 -180 Descending Boston Center
05:33PM 41.2381 -73.7728 221° Southwest 168 193 2,000  Level Boston Center
05:34PM 41.1900 -73.7789 185° South 156 180 2,100  Climbing Boston Center
05:35PM 41.1503 -73.7700 170° South 150 173 2,000 -300 Descending Boston Center
05:36PM 41.1178 -73.7467 152° Southeast 143 165 1,500 -600 Descending Boston Center
05:37PM 41.0875 -73.7236 150° Southeast 135 155 800 -420 Descending Boston Center
05:38PM 41.0581 -73.7028 152° Southeast 133 153 700 -120 Descending Boston Center
05:40PM 41.0669 -73.7076 270° West  Level Estimated
05:47PM 41.0667 -73.7000 270° West  Level FlightAware Approximate